sensor_id;sensor_type;location;lat;lon;timestamp;P1;durP1;ratioP1;P2;durP2;ratioP2
65463;SDS011;52063;45.110;9.870;2023-07-29T00:01:00;5.10;;;4.27;;
65463;SDS011;52063;45.110;9.870;2023-07-29T00:03:26;6.83;;;4.57;;
65463;SDS011;52063;45.110;9.870;2023-07-29T00:05:51;6.78;;;4.40;;
65463;SDS011;52063;45.110;9.870;2023-07-29T00:08:17;6.77;;;3.87;;
65463;SDS011;52063;45.110;9.870;2023-07-29T00:10:42;9.17;;;3.90;;
65463;SDS011;52063;45.110;9.870;2023-07-29T00:13:08;5.97;;;3.97;;
65463;SDS011;52063;45.110;9.870;2023-07-29T00:15:33;4.97;;;3.83;;
65463;SDS011;52063;45.110;9.870;2023-07-29T00:17:59;5.50;;;3.80;;
65463;SDS011;52063;45.110;9.870;2023-07-29T00:20:25;4.57;;;3.70;;
65463;SDS011;52063;45.110;9.870;2023-07-29T00:22:50;6.23;;;4.30;;
65463;SDS011;52063;45.110;9.870;2023-07-29T00:25:19;6.40;;;3.95;;
65463;SDS011;52063;45.110;9.870;2023-07-29T00:27:44;8.73;;;4.22;;
65463;SDS011;52063;45.110;9.870;2023-07-29T00:30:10;5.60;;;4.00;;
65463;SDS011;52063;45.110;9.870;2023-07-29T00:32:36;5.93;;;4.38;;
65463;SDS011;52063;45.110;9.870;2023-07-29T00:35:02;7.18;;;4.80;;
65463;SDS011;52063;45.110;9.870;2023-07-29T00:37:29;7.87;;;4.73;;
65463;SDS011;52063;45.110;9.870;2023-07-29T00:39:55;7.95;;;4.97;;
65463;SDS011;52063;45.110;9.870;2023-07-29T00:42:21;7.53;;;5.20;;
65463;SDS011;52063;45.110;9.870;2023-07-29T00:44:46;5.73;;;4.53;;
65463;SDS011;52063;45.110;9.870;2023-07-29T00:47:12;6.60;;;4.90;;
65463;SDS011;52063;45.110;9.870;2023-07-29T00:49:40;6.38;;;4.10;;
65463;SDS011;52063;45.110;9.870;2023-07-29T00:52:07;4.55;;;3.80;;
65463;SDS011;52063;45.110;9.870;2023-07-29T00:54:32;4.73;;;3.70;;
65463;SDS011;52063;45.110;9.870;2023-07-29T00:56:57;5.07;;;3.85;;
65463;SDS011;52063;45.110;9.870;2023-07-29T00:59:23;7.93;;;3.77;;
65463;SDS011;52063;45.110;9.870;2023-07-29T01:01:49;7.60;;;3.93;;
65463;SDS011;52063;45.110;9.870;2023-07-29T01:04:14;5.87;;;3.90;;
65463;SDS011;52063;45.110;9.870;2023-07-29T01:06:49;7.17;;;4.00;;
65463;SDS011;52063;45.110;9.870;2023-07-29T01:09:25;6.25;;;3.78;;
65463;SDS011;52063;45.110;9.870;2023-07-29T01:12:16;7.38;;;3.80;;
65463;SDS011;52063;45.110;9.870;2023-07-29T01:17:33;5.65;;;3.40;;
65463;SDS011;52063;45.110;9.870;2023-07-29T01:20:01;5.90;;;3.90;;
65463;SDS011;52063;45.110;9.870;2023-07-29T01:22:31;5.25;;;3.72;;
65463;SDS011;52063;45.110;9.870;2023-07-29T01:24:58;5.10;;;3.88;;
65463;SDS011;52063;45.110;9.870;2023-07-29T01:27:24;5.65;;;4.00;;
65463;SDS011;52063;45.110;9.870;2023-07-29T01:29:51;6.82;;;4.15;;
65463;SDS011;52063;45.110;9.870;2023-07-29T01:32:18;7.27;;;4.00;;
65463;SDS011;52063;45.110;9.870;2023-07-29T01:37:43;6.40;;;3.78;;
65463;SDS011;52063;45.110;9.870;2023-07-29T01:40:11;6.87;;;3.80;;
65463;SDS011;52063;45.110;9.870;2023-07-29T01:42:37;6.38;;;3.78;;
65463;SDS011;52063;45.110;9.870;2023-07-29T01:45:03;5.47;;;3.67;;
65463;SDS011;52063;45.110;9.870;2023-07-29T01:47:30;6.00;;;3.97;;
65463;SDS011;52063;45.110;9.870;2023-07-29T01:49:55;6.07;;;4.17;;
65463;SDS011;52063;45.110;9.870;2023-07-29T01:52:21;3.72;;;3.38;;
65463;SDS011;52063;45.110;9.870;2023-07-29T01:54:47;5.03;;;3.73;;
65463;SDS011;52063;45.110;9.870;2023-07-29T01:57:13;4.90;;;4.28;;
65463;SDS011;52063;45.110;9.870;2023-07-29T01:59:38;6.93;;;4.27;;
65463;SDS011;52063;45.110;9.870;2023-07-29T02:02:04;8.40;;;5.10;;
65463;SDS011;52063;45.110;9.870;2023-07-29T02:04:29;5.65;;;4.70;;
65463;SDS011;52063;45.110;9.870;2023-07-29T02:06:55;5.20;;;4.33;;
65463;SDS011;52063;45.110;9.870;2023-07-29T02:09:20;4.13;;;3.73;;
65463;SDS011;52063;45.110;9.870;2023-07-29T02:11:46;5.60;;;3.75;;
65463;SDS011;52063;45.110;9.870;2023-07-29T02:14:12;7.43;;;3.80;;
65463;SDS011;52063;45.110;9.870;2023-07-29T02:16:37;6.28;;;4.07;;
65463;SDS011;52063;45.110;9.870;2023-07-29T02:19:04;5.53;;;4.73;;
65463;SDS011;52063;45.110;9.870;2023-07-29T02:21:29;7.25;;;4.63;;
65463;SDS011;52063;45.110;9.870;2023-07-29T02:23:55;5.30;;;3.90;;
65463;SDS011;52063;45.110;9.870;2023-07-29T02:26:21;4.07;;;3.50;;
65463;SDS011;52063;45.110;9.870;2023-07-29T02:28:47;7.03;;;4.17;;
65463;SDS011;52063;45.110;9.870;2023-07-29T02:31:16;4.28;;;3.70;;
65463;SDS011;52063;45.110;9.870;2023-07-29T02:33:46;5.65;;;3.10;;
65463;SDS011;52063;45.110;9.870;2023-07-29T02:36:13;5.13;;;3.43;;
65463;SDS011;52063;45.110;9.870;2023-07-29T02:38:39;4.05;;;3.40;;
65463;SDS011;52063;45.110;9.870;2023-07-29T02:41:05;5.63;;;3.50;;
65463;SDS011;52063;45.110;9.870;2023-07-29T02:43:31;7.40;;;3.45;;
65463;SDS011;52063;45.110;9.870;2023-07-29T02:45:57;3.93;;;3.13;;
65463;SDS011;52063;45.110;9.870;2023-07-29T02:48:22;6.67;;;3.60;;
65463;SDS011;52063;45.110;9.870;2023-07-29T02:50:48;5.10;;;3.53;;
65463;SDS011;52063;45.110;9.870;2023-07-29T02:53:13;5.33;;;4.00;;
65463;SDS011;52063;45.110;9.870;2023-07-29T02:55:41;9.03;;;4.80;;
65463;SDS011;52063;45.110;9.870;2023-07-29T02:58:07;8.50;;;4.50;;
65463;SDS011;52063;45.110;9.870;2023-07-29T03:00:32;8.95;;;5.43;;
65463;SDS011;52063;45.110;9.870;2023-07-29T03:02:58;7.37;;;5.07;;
65463;SDS011;52063;45.110;9.870;2023-07-29T03:05:26;8.05;;;5.10;;
65463;SDS011;52063;45.110;9.870;2023-07-29T03:07:52;11.15;;;5.03;;
65463;SDS011;52063;45.110;9.870;2023-07-29T03:10:17;7.50;;;4.87;;
65463;SDS011;52063;45.110;9.870;2023-07-29T03:12:43;6.83;;;5.10;;
65463;SDS011;52063;45.110;9.870;2023-07-29T03:15:08;10.23;;;4.95;;
65463;SDS011;52063;45.110;9.870;2023-07-29T03:17:34;9.10;;;5.40;;
65463;SDS011;52063;45.110;9.870;2023-07-29T03:20:00;13.40;;;5.70;;
65463;SDS011;52063;45.110;9.870;2023-07-29T03:22:25;8.53;;;5.23;;
65463;SDS011;52063;45.110;9.870;2023-07-29T03:24:50;8.80;;;5.40;;
65463;SDS011;52063;45.110;9.870;2023-07-29T03:27:16;6.27;;;4.30;;
65463;SDS011;52063;45.110;9.870;2023-07-29T03:29:41;5.68;;;3.90;;
65463;SDS011;52063;45.110;9.870;2023-07-29T03:32:07;4.27;;;3.23;;
65463;SDS011;52063;45.110;9.870;2023-07-29T03:34:33;4.10;;;2.97;;
65463;SDS011;52063;45.110;9.870;2023-07-29T03:37:00;5.47;;;3.40;;
65463;SDS011;52063;45.110;9.870;2023-07-29T03:39:26;19.25;;;3.58;;
65463;SDS011;52063;45.110;9.870;2023-07-29T03:41:51;5.82;;;4.72;;
65463;SDS011;52063;45.110;9.870;2023-07-29T03:44:17;7.20;;;5.27;;
65463;SDS011;52063;45.110;9.870;2023-07-29T03:46:44;9.02;;;5.03;;
65463;SDS011;52063;45.110;9.870;2023-07-29T03:49:10;7.22;;;5.30;;
65463;SDS011;52063;45.110;9.870;2023-07-29T03:51:36;9.38;;;5.20;;
65463;SDS011;52063;45.110;9.870;2023-07-29T03:54:01;5.67;;;4.40;;
65463;SDS011;52063;45.110;9.870;2023-07-29T03:56:27;7.57;;;4.37;;
65463;SDS011;52063;45.110;9.870;2023-07-29T03:58:52;5.43;;;4.60;;
65463;SDS011;52063;45.110;9.870;2023-07-29T04:01:18;5.77;;;4.77;;
65463;SDS011;52063;45.110;9.870;2023-07-29T04:03:44;6.03;;;4.28;;
65463;SDS011;52063;45.110;9.870;2023-07-29T04:06:11;6.20;;;4.88;;
65463;SDS011;52063;45.110;9.870;2023-07-29T04:08:37;7.10;;;4.73;;
65463;SDS011;52063;45.110;9.870;2023-07-29T04:11:02;6.22;;;4.93;;
65463;SDS011;52063;45.110;9.870;2023-07-29T04:13:28;6.13;;;4.17;;
65463;SDS011;52063;45.110;9.870;2023-07-29T04:15:54;7.35;;;5.03;;
65463;SDS011;52063;45.110;9.870;2023-07-29T04:18:19;6.60;;;4.83;;
65463;SDS011;52063;45.110;9.870;2023-07-29T04:20:46;8.02;;;5.53;;
65463;SDS011;52063;45.110;9.870;2023-07-29T04:23:12;8.10;;;5.60;;
65463;SDS011;52063;45.110;9.870;2023-07-29T04:25:37;6.13;;;5.53;;
65463;SDS011;52063;45.110;9.870;2023-07-29T04:28:02;9.93;;;6.32;;
65463;SDS011;52063;45.110;9.870;2023-07-29T04:30:30;7.40;;;6.50;;
65463;SDS011;52063;45.110;9.870;2023-07-29T04:32:55;7.95;;;6.38;;
65463;SDS011;52063;45.110;9.870;2023-07-29T04:35:21;9.00;;;6.23;;
65463;SDS011;52063;45.110;9.870;2023-07-29T04:37:46;8.73;;;6.60;;
65463;SDS011;52063;45.110;9.870;2023-07-29T04:40:13;10.45;;;6.65;;
65463;SDS011;52063;45.110;9.870;2023-07-29T04:42:39;16.38;;;5.88;;
65463;SDS011;52063;45.110;9.870;2023-07-29T04:45:04;7.77;;;4.80;;
65463;SDS011;52063;45.110;9.870;2023-07-29T04:47:32;6.25;;;4.18;;
65463;SDS011;52063;45.110;9.870;2023-07-29T04:49:58;6.07;;;3.80;;
65463;SDS011;52063;45.110;9.870;2023-07-29T04:52:24;4.65;;;3.60;;
65463;SDS011;52063;45.110;9.870;2023-07-29T04:54:50;5.50;;;3.97;;
65463;SDS011;52063;45.110;9.870;2023-07-29T04:57:16;6.13;;;3.97;;
65463;SDS011;52063;45.110;9.870;2023-07-29T04:59:41;6.87;;;4.00;;
65463;SDS011;52063;45.110;9.870;2023-07-29T05:02:07;8.68;;;4.10;;
65463;SDS011;52063;45.110;9.870;2023-07-29T05:04:32;4.67;;;4.20;;
65463;SDS011;52063;45.110;9.870;2023-07-29T05:06:57;4.87;;;3.57;;
65463;SDS011;52063;45.110;9.870;2023-07-29T05:09:23;5.63;;;3.70;;
65463;SDS011;52063;45.110;9.870;2023-07-29T05:11:49;6.23;;;4.07;;
65463;SDS011;52063;45.110;9.870;2023-07-29T05:14:14;6.60;;;4.37;;
65463;SDS011;52063;45.110;9.870;2023-07-29T05:16:42;8.15;;;4.45;;
65463;SDS011;52063;45.110;9.870;2023-07-29T05:19:08;6.85;;;4.38;;
65463;SDS011;52063;45.110;9.870;2023-07-29T05:21:33;6.23;;;4.70;;
65463;SDS011;52063;45.110;9.870;2023-07-29T05:23:59;7.47;;;4.80;;
65463;SDS011;52063;45.110;9.870;2023-07-29T05:26:25;7.50;;;4.27;;
65463;SDS011;52063;45.110;9.870;2023-07-29T05:28:50;5.38;;;4.18;;
65463;SDS011;52063;45.110;9.870;2023-07-29T05:31:16;4.73;;;3.93;;
65463;SDS011;52063;45.110;9.870;2023-07-29T05:33:41;7.10;;;4.10;;
65463;SDS011;52063;45.110;9.870;2023-07-29T05:36:07;4.83;;;3.97;;
65463;SDS011;52063;45.110;9.870;2023-07-29T05:38:32;7.97;;;4.60;;
65463;SDS011;52063;45.110;9.870;2023-07-29T05:40:57;10.30;;;4.77;;
65463;SDS011;52063;45.110;9.870;2023-07-29T05:43:26;9.32;;;4.18;;
65463;SDS011;52063;45.110;9.870;2023-07-29T05:45:52;8.00;;;5.00;;
65463;SDS011;52063;45.110;9.870;2023-07-29T05:48:19;8.17;;;5.20;;
65463;SDS011;52063;45.110;9.870;2023-07-29T05:50:45;7.78;;;5.10;;
65463;SDS011;52063;45.110;9.870;2023-07-29T05:53:11;10.20;;;5.43;;
65463;SDS011;52063;45.110;9.870;2023-07-29T05:55:36;9.07;;;4.82;;
65463;SDS011;52063;45.110;9.870;2023-07-29T05:58:01;7.77;;;5.40;;
65463;SDS011;52063;45.110;9.870;2023-07-29T06:00:27;7.80;;;5.85;;
65463;SDS011;52063;45.110;9.870;2023-07-29T06:02:53;7.50;;;4.60;;
65463;SDS011;52063;45.110;9.870;2023-07-29T06:05:21;8.68;;;5.45;;
65463;SDS011;52063;45.110;9.870;2023-07-29T06:07:46;10.67;;;5.17;;
65463;SDS011;52063;45.110;9.870;2023-07-29T06:10:13;11.18;;;5.10;;
65463;SDS011;52063;45.110;9.870;2023-07-29T06:12:43;8.23;;;5.63;;
65463;SDS011;52063;45.110;9.870;2023-07-29T06:15:09;6.30;;;4.60;;
65463;SDS011;52063;45.110;9.870;2023-07-29T06:17:35;7.80;;;5.45;;
65463;SDS011;52063;45.110;9.870;2023-07-29T06:20:00;6.17;;;5.20;;
65463;SDS011;52063;45.110;9.870;2023-07-29T06:22:26;5.53;;;4.45;;
65463;SDS011;52063;45.110;9.870;2023-07-29T06:24:51;5.53;;;4.50;;
65463;SDS011;52063;45.110;9.870;2023-07-29T06:27:17;5.73;;;4.07;;
65463;SDS011;52063;45.110;9.870;2023-07-29T06:29:42;6.33;;;4.50;;
65463;SDS011;52063;45.110;9.870;2023-07-29T06:32:08;5.60;;;4.30;;
65463;SDS011;52063;45.110;9.870;2023-07-29T06:34:33;7.73;;;4.80;;
65463;SDS011;52063;45.110;9.870;2023-07-29T06:36:58;8.43;;;4.37;;
65463;SDS011;52063;45.110;9.870;2023-07-29T06:39:24;8.93;;;4.32;;
65463;SDS011;52063;45.110;9.870;2023-07-29T06:41:49;7.53;;;4.70;;
65463;SDS011;52063;45.110;9.870;2023-07-29T06:44:17;8.80;;;4.03;;
65463;SDS011;52063;45.110;9.870;2023-07-29T06:46:42;8.07;;;4.40;;
65463;SDS011;52063;45.110;9.870;2023-07-29T06:49:08;6.83;;;4.40;;
65463;SDS011;52063;45.110;9.870;2023-07-29T06:51:33;5.30;;;4.03;;
65463;SDS011;52063;45.110;9.870;2023-07-29T06:54:00;6.50;;;3.80;;
65463;SDS011;52063;45.110;9.870;2023-07-29T06:56:26;8.20;;;4.00;;
65463;SDS011;52063;45.110;9.870;2023-07-29T06:58:52;7.23;;;4.37;;
65463;SDS011;52063;45.110;9.870;2023-07-29T07:01:17;5.32;;;3.60;;
65463;SDS011;52063;45.110;9.870;2023-07-29T07:03:43;5.60;;;3.67;;
65463;SDS011;52063;45.110;9.870;2023-07-29T07:06:08;7.20;;;3.90;;
65463;SDS011;52063;45.110;9.870;2023-07-29T07:08:34;7.07;;;3.93;;
65463;SDS011;52063;45.110;9.870;2023-07-29T07:10:59;5.97;;;3.77;;
65463;SDS011;52063;45.110;9.870;2023-07-29T07:13:25;7.70;;;3.60;;
65463;SDS011;52063;45.110;9.870;2023-07-29T07:15:50;5.50;;;3.33;;
65463;SDS011;52063;45.110;9.870;2023-07-29T07:18:16;7.13;;;4.00;;
65463;SDS011;52063;45.110;9.870;2023-07-29T07:20:41;5.85;;;3.65;;
65463;SDS011;52063;45.110;9.870;2023-07-29T07:23:07;7.23;;;3.83;;
65463;SDS011;52063;45.110;9.870;2023-07-29T07:25:36;6.57;;;3.97;;
65463;SDS011;52063;45.110;9.870;2023-07-29T07:28:01;7.43;;;3.83;;
65463;SDS011;52063;45.110;9.870;2023-07-29T07:30:27;5.40;;;3.40;;
65463;SDS011;52063;45.110;9.870;2023-07-29T07:32:52;6.50;;;3.50;;
65463;SDS011;52063;45.110;9.870;2023-07-29T07:35:18;5.40;;;3.40;;
65463;SDS011;52063;45.110;9.870;2023-07-29T07:37:44;4.30;;;3.30;;
65463;SDS011;52063;45.110;9.870;2023-07-29T07:40:09;5.43;;;3.30;;
65463;SDS011;52063;45.110;9.870;2023-07-29T07:42:36;4.68;;;3.30;;
65463;SDS011;52063;45.110;9.870;2023-07-29T07:45:01;6.17;;;3.30;;
65463;SDS011;52063;45.110;9.870;2023-07-29T07:47:27;5.10;;;3.90;;
65463;SDS011;52063;45.110;9.870;2023-07-29T07:49:52;6.37;;;3.63;;
65463;SDS011;52063;45.110;9.870;2023-07-29T07:52:18;4.83;;;2.90;;
65463;SDS011;52063;45.110;9.870;2023-07-29T07:54:43;5.07;;;3.20;;
65463;SDS011;52063;45.110;9.870;2023-07-29T07:57:08;4.93;;;3.50;;
65463;SDS011;52063;45.110;9.870;2023-07-29T07:59:34;6.30;;;3.50;;
65463;SDS011;52063;45.110;9.870;2023-07-29T08:01:59;5.70;;;3.60;;
65463;SDS011;52063;45.110;9.870;2023-07-29T08:04:25;5.00;;;3.20;;
65463;SDS011;52063;45.110;9.870;2023-07-29T08:06:50;5.37;;;3.43;;
65463;SDS011;52063;45.110;9.870;2023-07-29T08:09:16;4.60;;;3.20;;
65463;SDS011;52063;45.110;9.870;2023-07-29T08:11:41;5.75;;;3.63;;
65463;SDS011;52063;45.110;9.870;2023-07-29T08:14:07;7.87;;;3.30;;
65463;SDS011;52063;45.110;9.870;2023-07-29T08:16:32;5.17;;;3.20;;
65463;SDS011;52063;45.110;9.870;2023-07-29T08:18:57;5.63;;;3.27;;
65463;SDS011;52063;45.110;9.870;2023-07-29T08:21:23;8.88;;;3.58;;
65463;SDS011;52063;45.110;9.870;2023-07-29T08:23:48;5.80;;;2.73;;
65463;SDS011;52063;45.110;9.870;2023-07-29T08:26:14;6.63;;;2.90;;
65463;SDS011;52063;45.110;9.870;2023-07-29T08:28:39;8.00;;;3.08;;
65463;SDS011;52063;45.110;9.870;2023-07-29T08:31:05;8.90;;;3.43;;
65463;SDS011;52063;45.110;9.870;2023-07-29T08:33:32;6.63;;;3.30;;
65463;SDS011;52063;45.110;9.870;2023-07-29T08:35:58;9.45;;;3.80;;
65463;SDS011;52063;45.110;9.870;2023-07-29T08:38:24;6.87;;;3.00;;
65463;SDS011;52063;45.110;9.870;2023-07-29T08:43:26;6.03;;;3.22;;
65463;SDS011;52063;45.110;9.870;2023-07-29T08:45:56;9.47;;;3.70;;
65463;SDS011;52063;45.110;9.870;2023-07-29T08:48:23;5.20;;;3.08;;
65463;SDS011;52063;45.110;9.870;2023-07-29T08:50:54;5.97;;;3.25;;
65463;SDS011;52063;45.110;9.870;2023-07-29T08:53:20;5.53;;;3.80;;
65463;SDS011;52063;45.110;9.870;2023-07-29T08:55:46;6.60;;;3.20;;
65463;SDS011;52063;45.110;9.870;2023-07-29T08:58:12;6.57;;;3.20;;
65463;SDS011;52063;45.110;9.870;2023-07-29T09:00:38;6.63;;;3.33;;
65463;SDS011;52063;45.110;9.870;2023-07-29T09:03:04;6.63;;;3.28;;
65463;SDS011;52063;45.110;9.870;2023-07-29T09:05:32;9.90;;;4.28;;
65463;SDS011;52063;45.110;9.870;2023-07-29T09:07:58;6.07;;;3.65;;
65463;SDS011;52063;45.110;9.870;2023-07-29T09:10:25;6.93;;;3.40;;
65463;SDS011;52063;45.110;9.870;2023-07-29T09:12:51;10.02;;;3.35;;
65463;SDS011;52063;45.110;9.870;2023-07-29T09:15:26;6.05;;;3.47;;
65463;SDS011;52063;45.110;9.870;2023-07-29T09:17:52;7.10;;;3.47;;
65463;SDS011;52063;45.110;9.870;2023-07-29T09:20:22;7.07;;;3.23;;
65463;SDS011;52063;45.110;9.870;2023-07-29T09:22:49;4.00;;;2.72;;
65463;SDS011;52063;45.110;9.870;2023-07-29T09:25:14;5.40;;;3.23;;
65463;SDS011;52063;45.110;9.870;2023-07-29T09:27:41;6.85;;;3.42;;
65463;SDS011;52063;45.110;9.870;2023-07-29T09:30:07;8.33;;;3.13;;
65463;SDS011;52063;45.110;9.870;2023-07-29T09:32:41;5.68;;;2.83;;
65463;SDS011;52063;45.110;9.870;2023-07-29T09:35:09;6.17;;;3.20;;
65463;SDS011;52063;45.110;9.870;2023-07-29T09:37:36;5.82;;;2.92;;
65463;SDS011;52063;45.110;9.870;2023-07-29T09:40:03;9.32;;;3.22;;
65463;SDS011;52063;45.110;9.870;2023-07-29T09:42:29;5.00;;;2.80;;
65463;SDS011;52063;45.110;9.870;2023-07-29T09:44:55;6.57;;;3.23;;
65463;SDS011;52063;45.110;9.870;2023-07-29T09:47:24;8.70;;;2.47;;
65463;SDS011;52063;45.110;9.870;2023-07-29T09:49:51;4.28;;;2.55;;
65463;SDS011;52063;45.110;9.870;2023-07-29T09:52:18;4.22;;;2.80;;
65463;SDS011;52063;45.110;9.870;2023-07-29T09:54:44;5.43;;;2.92;;
65463;SDS011;52063;45.110;9.870;2023-07-29T09:57:11;8.80;;;3.17;;
65463;SDS011;52063;45.110;9.870;2023-07-29T09:59:37;6.50;;;3.80;;
65463;SDS011;52063;45.110;9.870;2023-07-29T10:02:02;9.68;;;4.57;;
65463;SDS011;52063;45.110;9.870;2023-07-29T10:04:28;6.47;;;4.33;;
65463;SDS011;52063;45.110;9.870;2023-07-29T10:06:54;8.23;;;4.20;;
65463;SDS011;52063;45.110;9.870;2023-07-29T10:09:20;4.80;;;3.88;;
65463;SDS011;52063;45.110;9.870;2023-07-29T10:11:46;5.27;;;3.83;;
65463;SDS011;52063;45.110;9.870;2023-07-29T10:14:11;5.53;;;3.58;;
65463;SDS011;52063;45.110;9.870;2023-07-29T10:16:37;5.50;;;4.23;;
65463;SDS011;52063;45.110;9.870;2023-07-29T10:19:05;6.88;;;3.92;;
65463;SDS011;52063;45.110;9.870;2023-07-29T10:21:33;5.05;;;3.75;;
65463;SDS011;52063;45.110;9.870;2023-07-29T10:23:59;5.95;;;4.68;;
65463;SDS011;52063;45.110;9.870;2023-07-29T10:26:26;11.20;;;4.93;;
65463;SDS011;52063;45.110;9.870;2023-07-29T10:28:53;221.57;;;152.93;;
65463;SDS011;52063;45.110;9.870;2023-07-29T10:31:19;306.48;;;195.70;;
65463;SDS011;52063;45.110;9.870;2023-07-29T10:33:46;226.82;;;130.05;;
65463;SDS011;52063;45.110;9.870;2023-07-29T10:36:12;144.30;;;84.67;;
65463;SDS011;52063;45.110;9.870;2023-07-29T10:38:38;113.53;;;65.70;;
65463;SDS011;52063;45.110;9.870;2023-07-29T10:41:04;81.37;;;49.40;;
65463;SDS011;52063;45.110;9.870;2023-07-29T10:45:55;37.23;;;21.70;;
65463;SDS011;52063;45.110;9.870;2023-07-29T10:53:54;14.90;;;8.97;;
65463;SDS011;52063;45.110;9.870;2023-07-29T10:56:25;14.20;;;9.20;;
65463;SDS011;52063;45.110;9.870;2023-07-29T10:58:56;20.15;;;14.07;;
65463;SDS011;52063;45.110;9.870;2023-07-29T11:01:28;31.02;;;19.75;;
65463;SDS011;52063;45.110;9.870;2023-07-29T11:07:17;14.70;;;7.00;;
65463;SDS011;52063;45.110;9.870;2023-07-29T11:15:11;8.17;;;5.03;;
65463;SDS011;52063;45.110;9.870;2023-07-29T11:17:45;9.15;;;5.50;;
65463;SDS011;52063;45.110;9.870;2023-07-29T11:20:21;9.52;;;5.03;;
65463;SDS011;52063;45.110;9.870;2023-07-29T11:22:54;7.50;;;4.20;;
65463;SDS011;52063;45.110;9.870;2023-07-29T11:25:21;6.57;;;4.50;;
65463;SDS011;52063;45.110;9.870;2023-07-29T11:27:48;8.50;;;4.50;;
65463;SDS011;52063;45.110;9.870;2023-07-29T11:30:14;6.18;;;3.80;;
65463;SDS011;52063;45.110;9.870;2023-07-29T11:32:41;5.78;;;3.67;;
65463;SDS011;52063;45.110;9.870;2023-07-29T11:35:09;7.07;;;3.83;;
65463;SDS011;52063;45.110;9.870;2023-07-29T11:37:45;5.65;;;3.50;;
65463;SDS011;52063;45.110;9.870;2023-07-29T11:40:19;5.03;;;3.10;;
65463;SDS011;52063;45.110;9.870;2023-07-29T11:42:45;4.93;;;3.40;;
65463;SDS011;52063;45.110;9.870;2023-07-29T11:45:12;9.48;;;3.38;;
65463;SDS011;52063;45.110;9.870;2023-07-29T11:47:38;5.93;;;3.13;;
65463;SDS011;52063;45.110;9.870;2023-07-29T11:50:04;9.03;;;3.70;;
65463;SDS011;52063;45.110;9.870;2023-07-29T11:52:32;5.32;;;3.58;;
65463;SDS011;52063;45.110;9.870;2023-07-29T11:54:59;6.07;;;4.03;;
65463;SDS011;52063;45.110;9.870;2023-07-29T11:57:26;4.50;;;3.55;;
65463;SDS011;52063;45.110;9.870;2023-07-29T11:59:52;6.00;;;3.47;;
65463;SDS011;52063;45.110;9.870;2023-07-29T12:02:19;3.85;;;3.20;;
65463;SDS011;52063;45.110;9.870;2023-07-29T12:04:45;4.73;;;3.30;;
65463;SDS011;52063;45.110;9.870;2023-07-29T12:07:12;4.82;;;3.25;;
65463;SDS011;52063;45.110;9.870;2023-07-29T12:09:39;6.05;;;3.28;;
65463;SDS011;52063;45.110;9.870;2023-07-29T12:12:04;7.27;;;3.60;;
65463;SDS011;52063;45.110;9.870;2023-07-29T12:14:31;8.05;;;4.00;;
65463;SDS011;52063;45.110;9.870;2023-07-29T12:17:01;5.82;;;3.55;;
65463;SDS011;52063;45.110;9.870;2023-07-29T12:19:34;6.13;;;3.50;;
65463;SDS011;52063;45.110;9.870;2023-07-29T12:22:01;9.93;;;3.60;;
65463;SDS011;52063;45.110;9.870;2023-07-29T12:24:29;6.60;;;3.70;;
65463;SDS011;52063;45.110;9.870;2023-07-29T12:26:55;6.35;;;3.20;;
65463;SDS011;52063;45.110;9.870;2023-07-29T12:29:21;6.10;;;3.57;;
65463;SDS011;52063;45.110;9.870;2023-07-29T12:31:46;5.80;;;3.27;;
65463;SDS011;52063;45.110;9.870;2023-07-29T12:34:18;5.53;;;3.03;;
65463;SDS011;52063;45.110;9.870;2023-07-29T12:36:48;6.82;;;3.30;;
65463;SDS011;52063;45.110;9.870;2023-07-29T12:39:18;7.00;;;3.40;;
65463;SDS011;52063;45.110;9.870;2023-07-29T12:41:44;4.53;;;3.53;;
65463;SDS011;52063;45.110;9.870;2023-07-29T12:44:10;5.93;;;3.20;;
65463;SDS011;52063;45.110;9.870;2023-07-29T12:46:35;5.57;;;3.43;;
65463;SDS011;52063;45.110;9.870;2023-07-29T12:49:01;4.32;;;3.30;;
65463;SDS011;52063;45.110;9.870;2023-07-29T12:51:26;4.83;;;3.40;;
65463;SDS011;52063;45.110;9.870;2023-07-29T12:53:53;4.53;;;3.00;;
65463;SDS011;52063;45.110;9.870;2023-07-29T12:56:18;5.50;;;3.10;;
65463;SDS011;52063;45.110;9.870;2023-07-29T12:58:44;6.37;;;3.20;;
65463;SDS011;52063;45.110;9.870;2023-07-29T13:01:09;6.55;;;3.10;;
65463;SDS011;52063;45.110;9.870;2023-07-29T13:03:38;5.10;;;3.17;;
65463;SDS011;52063;45.110;9.870;2023-07-29T13:06:03;5.18;;;3.03;;
65463;SDS011;52063;45.110;9.870;2023-07-29T13:08:29;5.80;;;3.20;;
65463;SDS011;52063;45.110;9.870;2023-07-29T13:10:56;4.25;;;2.97;;
65463;SDS011;52063;45.110;9.870;2023-07-29T13:13:21;5.13;;;3.03;;
65463;SDS011;52063;45.110;9.870;2023-07-29T13:15:47;5.22;;;3.33;;
65463;SDS011;52063;45.110;9.870;2023-07-29T13:18:12;3.43;;;3.10;;
65463;SDS011;52063;45.110;9.870;2023-07-29T13:20:38;3.83;;;2.90;;
65463;SDS011;52063;45.110;9.870;2023-07-29T13:23:03;4.97;;;3.17;;
65463;SDS011;52063;45.110;9.870;2023-07-29T13:25:28;5.30;;;3.78;;
65463;SDS011;52063;45.110;9.870;2023-07-29T13:27:54;5.80;;;3.43;;
65463;SDS011;52063;45.110;9.870;2023-07-29T13:30:19;5.57;;;3.37;;
65463;SDS011;52063;45.110;9.870;2023-07-29T13:32:45;5.53;;;3.30;;
65463;SDS011;52063;45.110;9.870;2023-07-29T13:35:10;7.57;;;3.38;;
65463;SDS011;52063;45.110;9.870;2023-07-29T13:37:35;5.93;;;4.17;;
65463;SDS011;52063;45.110;9.870;2023-07-29T13:40:01;5.90;;;3.20;;
65463;SDS011;52063;45.110;9.870;2023-07-29T13:42:26;7.90;;;3.10;;
65463;SDS011;52063;45.110;9.870;2023-07-29T13:44:52;7.20;;;3.25;;
65463;SDS011;52063;45.110;9.870;2023-07-29T13:47:17;4.63;;;3.17;;
65463;SDS011;52063;45.110;9.870;2023-07-29T13:49:43;5.97;;;3.50;;
65463;SDS011;52063;45.110;9.870;2023-07-29T13:52:08;6.33;;;3.30;;
65463;SDS011;52063;45.110;9.870;2023-07-29T13:54:34;7.07;;;3.33;;
65463;SDS011;52063;45.110;9.870;2023-07-29T13:56:59;3.70;;;3.13;;
65463;SDS011;52063;45.110;9.870;2023-07-29T13:59:24;4.70;;;3.63;;
65463;SDS011;52063;45.110;9.870;2023-07-29T14:01:50;4.50;;;3.35;;
65463;SDS011;52063;45.110;9.870;2023-07-29T14:04:15;5.30;;;3.47;;
65463;SDS011;52063;45.110;9.870;2023-07-29T14:06:41;6.00;;;3.37;;
65463;SDS011;52063;45.110;9.870;2023-07-29T14:09:06;5.15;;;3.78;;
65463;SDS011;52063;45.110;9.870;2023-07-29T14:11:32;5.00;;;3.30;;
65463;SDS011;52063;45.110;9.870;2023-07-29T14:13:57;8.27;;;3.33;;
65463;SDS011;52063;45.110;9.870;2023-07-29T14:16:23;7.47;;;3.50;;
65463;SDS011;52063;45.110;9.870;2023-07-29T14:18:48;8.15;;;3.60;;
65463;SDS011;52063;45.110;9.870;2023-07-29T14:21:13;4.67;;;3.40;;
65463;SDS011;52063;45.110;9.870;2023-07-29T14:23:39;4.50;;;3.70;;
65463;SDS011;52063;45.110;9.870;2023-07-29T14:26:04;6.83;;;3.30;;
65463;SDS011;52063;45.110;9.870;2023-07-29T14:28:30;6.13;;;3.75;;
65463;SDS011;52063;45.110;9.870;2023-07-29T14:30:55;9.23;;;3.43;;
65463;SDS011;52063;45.110;9.870;2023-07-29T14:33:21;5.75;;;3.10;;
65463;SDS011;52063;45.110;9.870;2023-07-29T14:35:46;6.67;;;3.10;;
65463;SDS011;52063;45.110;9.870;2023-07-29T14:38:12;6.00;;;3.37;;
65463;SDS011;52063;45.110;9.870;2023-07-29T14:40:37;3.50;;;2.83;;
65463;SDS011;52063;45.110;9.870;2023-07-29T14:43:03;4.57;;;3.10;;
65463;SDS011;52063;45.110;9.870;2023-07-29T14:45:28;5.50;;;3.40;;
65463;SDS011;52063;45.110;9.870;2023-07-29T14:47:54;3.63;;;2.67;;
65463;SDS011;52063;45.110;9.870;2023-07-29T14:50:19;5.65;;;3.15;;
65463;SDS011;52063;45.110;9.870;2023-07-29T14:52:45;4.20;;;2.83;;
65463;SDS011;52063;45.110;9.870;2023-07-29T14:55:10;4.13;;;3.20;;
65463;SDS011;52063;45.110;9.870;2023-07-29T14:57:35;3.57;;;3.07;;
65463;SDS011;52063;45.110;9.870;2023-07-29T15:00:01;4.70;;;3.05;;
65463;SDS011;52063;45.110;9.870;2023-07-29T15:02:28;6.18;;;3.60;;
65463;SDS011;52063;45.110;9.870;2023-07-29T15:04:54;6.40;;;3.55;;